The Sea Ranch, CA (95497)

6:58 AM PDT on May 23, 2015 (GMT -0700)
Near the Sea Ranch Airport | | Change Station
CLOSE
Current Station
Personal Weather Station
Location: The Sea Ranch, CA
Elevation: 331 ft
Nearby Weather Stations

Elev 331 ft 38.70 °N, 123.43 °W | Updated 399 days ago

Overcast
Overcast
51 °F
Feels Like 51 °F
N
7
Wind Variable Wind from NNW
Gusts mph

Today
High -- | Low -- °F
--% Chance of Precip.
Yesterday
High -- | Low -- °F
Precip. -- in
5:55 AM 8:26 PM
Waxing Crescent, 30% visible
Pressure 30.03 in
Visibility 10.0 miles
Clouds Overcast 1500 ft
Dew Point 48 °F
Humidity 90%
Rainfall in
Snow Depth Not available.
UV 0 out of 12
Pollen 6.50 out of 12
Air Quality Not available.
Flu Activity Sporadic
METAR KUKI 231256Z AUTO 00000KT 10SM OVC015 13/09 A3004 RMK AO2 SLP168 T01330094

More Conditions Fewer Conditions

Pressure 30.03 in
Visibility 10.0 miles
Clouds Overcast 1500 ft
Dew Point 48 °F
Humidity 90%
Rainfall in
Snow Depth Not available.
UV 0 out of 12
Pollen 6.50 out of 12
Air Quality Not available.
Flu Activity Sporadic
METAR KUKI 231256Z AUTO 00000KT 10SM OVC015 13/09 A3004 RMK AO2 SLP168 T01330094

More Conditions Fewer Conditions

10-Day Weather Forecast

Almanac

Astronomy

May. 23, 2015 Rise Set
Actual Time
Civil Twilight
Nautical Twilight
Astronomical Twilight
Moon
Length of Visible Light
Length of Day
Tomorrow will be .
, % of the Moon is Illuminated

Today's Extremes

State Highs State Lows

Community

WunderPhotos

Upload Photos

1,823,467 photos uploaded!

WunderBlogs® & News

Nearby

Air Quality

  Air Quality AQ Index Pollutant
Not available.

Snow Depth

Station Depth Elevation

Earthquake Activity

City Distance Mag. Time & Date
Minimum magnitude displayed is 2.5.

Coastal Water Temperatures

Place Temperature

Stations

Nearby Weather Stations

Station Location Temp. Windchill Dew Point Humidity Wind Precip. Elev Updated Type